createdAt,value
2023-04-10T00:01:23.973Z,25.26
2023-04-10T00:03:50.422Z,25.32
2023-04-10T00:06:16.881Z,25.34
2023-04-10T00:08:43.215Z,25.39
2023-04-10T00:11:09.548Z,25.44
2023-04-10T00:13:35.948Z,25.51
2023-04-10T00:16:02.396Z,25.52
2023-04-10T00:18:28.819Z,25.54
2023-04-10T00:20:55.151Z,25.57
2023-04-10T00:23:21.704Z,25.58
2023-04-10T00:25:48.292Z,25.59
2023-04-10T00:28:15.675Z,25.59
2023-04-10T00:30:42.013Z,25.60
2023-04-10T00:33:08.400Z,25.60
2023-04-10T00:35:34.816Z,25.60
2023-04-10T00:38:01.163Z,25.60
2023-04-10T00:40:29.678Z,25.61
2023-04-10T00:42:56.040Z,25.60
2023-04-10T00:45:22.356Z,25.60
2023-04-10T00:47:48.740Z,25.58
2023-04-10T00:50:15.312Z,25.58
2023-04-10T00:52:41.632Z,25.56
2023-04-10T00:55:08.114Z,25.56
2023-04-10T00:57:34.724Z,25.59
2023-04-10T01:00:01.112Z,25.37
2023-04-10T01:02:27.543Z,24.83
2023-04-10T01:04:53.941Z,24.52
2023-04-10T01:07:22.295Z,24.44
2023-04-10T01:09:59.138Z,24.45
2023-04-10T01:12:40.664Z,24.44
2023-04-10T01:15:08.483Z,24.46
2023-04-10T01:17:36.378Z,24.41
2023-04-10T01:20:02.999Z,24.35
2023-04-10T01:22:46.597Z,24.34
2023-04-10T01:25:31.793Z,24.28
2023-04-10T01:28:03.927Z,24.24
2023-04-10T01:30:30.247Z,24.18
2023-04-10T01:32:56.964Z,24.13
2023-04-10T01:35:23.371Z,24.10
2023-04-10T01:37:49.802Z,24.09
2023-04-10T01:40:16.516Z,24.08
2023-04-10T01:42:47.984Z,24.03
2023-04-10T01:45:16.376Z,24.02
2023-04-10T01:47:42.833Z,23.98
2023-04-10T01:50:09.201Z,23.91
2023-04-10T01:52:35.546Z,23.94
2023-04-10T01:55:02.106Z,23.94
2023-04-10T01:57:30.563Z,23.90
2023-04-10T01:59:56.877Z,23.88
2023-04-10T02:02:23.473Z,23.86
2023-04-10T02:04:52.891Z,23.98
2023-04-10T02:07:20.364Z,24.04
2023-04-10T02:10:00.407Z,24.04
2023-04-10T02:12:28.863Z,24.04
2023-04-10T02:14:56.136Z,24.02
2023-04-10T02:17:23.615Z,24.01
2023-04-10T02:19:50.031Z,24.01
2023-04-10T02:22:16.877Z,24.00
2023-04-10T02:24:43.196Z,23.96
2023-04-10T02:27:09.498Z,23.93
2023-04-10T02:29:35.832Z,23.91
2023-04-10T02:32:02.172Z,23.86
2023-04-10T02:34:28.490Z,23.84
2023-04-10T02:36:54.899Z,23.82
2023-04-10T02:39:21.217Z,23.79
2023-04-10T02:41:47.752Z,23.75
2023-04-10T02:44:14.063Z,23.73
2023-04-10T02:46:41.201Z,23.66
2023-04-10T02:49:07.527Z,23.66
2023-04-10T02:51:37.109Z,23.69
2023-04-10T02:54:03.574Z,23.67
2023-04-10T02:56:29.908Z,23.65
2023-04-10T02:58:56.239Z,23.62
2023-04-10T03:01:23.410Z,23.61
2023-04-10T03:03:49.827Z,23.56
2023-04-10T03:06:16.273Z,23.56
2023-04-10T03:08:42.580Z,23.53
2023-04-10T03:11:09.531Z,23.49
2023-04-10T03:13:36.012Z,23.47
2023-04-10T03:16:02.582Z,23.45
2023-04-10T03:18:29.798Z,23.43
2023-04-10T03:20:56.133Z,23.41
2023-04-10T03:23:22.474Z,23.39
2023-04-10T03:25:55.014Z,23.38
2023-04-10T03:28:21.558Z,23.35
2023-04-10T03:30:48.141Z,23.35
2023-04-10T03:33:14.475Z,23.35
2023-04-10T03:35:40.830Z,23.34
2023-04-10T03:38:07.176Z,23.32
2023-04-10T03:40:34.320Z,23.30
2023-04-10T03:43:00.970Z,23.28
2023-04-10T03:45:27.344Z,23.26
2023-04-10T03:47:53.683Z,23.24
2023-04-10T03:50:20.407Z,23.21
2023-04-10T03:52:46.830Z,23.18
2023-04-10T03:55:14.357Z,23.14
2023-04-10T03:57:40.780Z,23.09
2023-04-10T04:00:08.766Z,23.11
2023-04-10T04:02:35.240Z,23.12
2023-04-10T04:05:01.670Z,23.13
2023-04-10T04:07:27.992Z,23.11
2023-04-10T04:09:56.477Z,23.10
2023-04-10T04:12:22.917Z,23.08
2023-04-10T04:14:49.255Z,23.04
2023-04-10T04:17:15.584Z,23.01
2023-04-10T04:19:42.130Z,23.01
2023-04-10T04:22:08.504Z,22.97
2023-04-10T04:24:34.828Z,22.95
2023-04-10T04:27:02.604Z,22.93
2023-04-10T04:29:28.918Z,22.91
2023-04-10T04:31:55.457Z,22.90
2023-04-10T04:34:21.835Z,22.89
2023-04-10T04:36:48.203Z,22.87
2023-04-10T04:39:14.576Z,22.86
2023-04-10T04:41:40.883Z,22.84
2023-04-10T04:44:07.192Z,22.84
2023-04-10T04:46:33.537Z,22.85
2023-04-10T04:48:59.884Z,22.86
2023-04-10T04:51:27.054Z,22.86
2023-04-10T04:53:53.627Z,22.84
2023-04-10T04:56:20.384Z,22.82
2023-04-10T04:58:46.688Z,22.80
2023-04-10T05:01:13.109Z,22.76
2023-04-10T05:03:39.529Z,22.75
2023-04-10T05:06:06.088Z,22.73
2023-04-10T05:08:32.427Z,22.74
2023-04-10T05:10:58.761Z,22.75
2023-04-10T05:13:25.302Z,22.79
2023-04-10T05:15:51.718Z,22.82
2023-04-10T05:18:19.813Z,22.85
2023-04-10T05:20:46.865Z,22.85
2023-04-10T05:23:13.188Z,22.87
2023-04-10T05:25:39.511Z,22.88
2023-04-10T05:28:05.901Z,22.89
2023-04-10T05:30:32.221Z,22.90
2023-04-10T05:32:58.610Z,22.88
2023-04-10T05:35:24.992Z,22.88
2023-04-10T05:37:51.346Z,22.88
2023-04-10T05:40:17.677Z,22.89
2023-04-10T05:42:44.009Z,22.90
2023-04-10T05:45:10.623Z,22.91
2023-04-10T05:47:37.266Z,22.95
2023-04-10T05:50:03.846Z,22.98
2023-04-10T05:52:30.927Z,22.99
2023-04-10T05:54:57.242Z,23.00
2023-04-10T05:57:23.656Z,23.01
2023-04-10T05:59:49.974Z,23.03
2023-04-10T06:02:16.949Z,23.01
2023-04-10T06:04:43.524Z,23.02
2023-04-10T06:07:10.179Z,23.02
2023-04-10T06:09:36.495Z,23.05
2023-04-10T06:12:02.799Z,23.08
2023-04-10T06:14:29.136Z,23.10
2023-04-10T06:16:55.453Z,23.13
2023-04-10T06:19:21.774Z,23.16
2023-04-10T06:21:48.082Z,23.18
2023-04-10T06:24:15.691Z,23.20
2023-04-10T06:26:42.004Z,23.24
2023-04-10T06:31:34.561Z,23.33
2023-04-10T06:34:00.906Z,23.36
2023-04-10T06:36:27.650Z,23.37
2023-04-10T06:38:54.256Z,23.41
2023-04-10T06:41:20.906Z,23.43
2023-04-10T06:43:47.446Z,23.48
2023-04-10T06:46:14.235Z,23.48
2023-04-10T06:48:40.804Z,23.44
2023-04-10T06:51:07.591Z,23.52
2023-04-10T06:53:33.955Z,23.54
2023-04-10T06:56:02.974Z,23.54
2023-04-10T06:58:29.936Z,23.54
2023-04-10T07:00:56.335Z,23.52
2023-04-10T07:03:22.686Z,23.56
2023-04-10T07:05:49.036Z,23.59
2023-04-10T07:08:15.958Z,23.61
2023-04-10T07:10:42.264Z,23.61
2023-04-10T07:13:08.593Z,23.65
2023-04-10T07:15:34.896Z,23.67
2023-04-10T07:18:01.365Z,23.69
2023-04-10T07:20:28.057Z,23.77
2023-04-10T07:22:54.399Z,23.86
2023-04-10T07:25:20.952Z,23.93
2023-04-10T07:27:47.276Z,23.96
2023-04-10T07:30:14.029Z,24.01
2023-04-10T07:32:42.095Z,23.96
2023-04-10T07:35:08.825Z,23.85
2023-04-10T07:37:35.318Z,23.63
2023-04-10T07:40:02.645Z,23.63
2023-04-10T07:42:29.121Z,23.56
2023-04-10T07:44:55.519Z,23.65
2023-04-10T07:47:21.864Z,23.65
2023-04-10T07:49:48.335Z,23.70
2023-04-10T07:52:15.799Z,23.75
2023-04-10T07:54:42.499Z,23.89
2023-04-10T07:57:08.828Z,23.90
2023-04-10T07:59:35.210Z,23.92
2023-04-10T08:02:01.664Z,24.03
2023-04-10T08:04:28.214Z,24.00
2023-04-10T08:06:54.761Z,23.89
2023-04-10T08:09:21.164Z,24.03
2023-04-10T08:11:47.881Z,23.98
2023-04-10T08:14:18.173Z,23.96
2023-04-10T08:16:44.859Z,23.66
2023-04-10T08:19:11.371Z,23.49
2023-04-10T08:21:37.721Z,23.45
2023-04-10T08:24:04.391Z,23.53
2023-04-10T08:26:30.720Z,23.69
2023-04-10T08:28:57.858Z,23.59
2023-04-10T08:31:24.685Z,23.57
2023-04-10T08:33:52.010Z,23.67
2023-04-10T08:36:20.170Z,23.64
2023-04-10T08:38:46.996Z,23.48
2023-04-10T08:41:13.766Z,23.62
2023-04-10T08:43:40.078Z,23.61
2023-04-10T08:46:06.723Z,23.52
2023-04-10T08:48:38.341Z,23.62
2023-04-10T08:51:04.958Z,23.61
2023-04-10T08:53:32.279Z,23.61
2023-04-10T08:55:58.697Z,23.38
2023-04-10T08:58:25.004Z,23.17
2023-04-10T09:00:51.328Z,22.93
2023-04-10T09:03:17.765Z,23.18
2023-04-10T09:05:44.262Z,23.38
2023-04-10T09:08:13.672Z,23.32
2023-04-10T09:10:40.039Z,23.29
2023-04-10T09:13:06.370Z,23.29
2023-04-10T09:15:52.621Z,23.37
2023-04-10T09:18:18.966Z,23.41
2023-04-10T09:20:46.770Z,23.41
2023-04-10T09:23:19.772Z,23.44
2023-04-10T09:25:46.084Z,23.46
2023-04-10T09:28:12.409Z,23.44
2023-04-10T09:30:40.025Z,23.57
2023-04-10T09:33:21.684Z,23.55
2023-04-10T09:35:48.032Z,23.40
2023-04-10T09:38:19.736Z,23.36
2023-04-10T09:40:46.199Z,23.40
2023-04-10T09:43:19.001Z,23.39
2023-04-10T09:45:48.744Z,23.41
2023-04-10T09:48:15.432Z,23.35
2023-04-10T09:50:42.120Z,23.36
2023-04-10T09:53:09.022Z,23.34
2023-04-10T09:55:36.300Z,23.23
2023-04-10T09:58:03.360Z,23.12
2023-04-10T10:00:29.687Z,23.24
2023-04-10T10:02:56.206Z,23.34
2023-04-10T10:07:49.425Z,23.29
2023-04-10T10:10:15.723Z,23.26
2023-04-10T10:12:54.990Z,23.28
2023-04-10T10:15:40.153Z,23.24
2023-04-10T10:18:09.467Z,23.24
2023-04-10T10:20:36.735Z,23.21
2023-04-10T10:23:03.452Z,23.24
2023-04-10T10:25:31.208Z,23.26
2023-04-10T10:27:57.607Z,23.26
2023-04-10T10:30:30.263Z,23.32
2023-04-10T10:32:58.259Z,23.37
2023-04-10T10:35:27.282Z,23.21
2023-04-10T10:37:55.181Z,23.18
2023-04-10T10:40:38.863Z,23.23
2023-04-10T10:43:05.096Z,23.16
2023-04-10T10:45:33.189Z,23.13
2023-04-10T10:47:59.596Z,23.12
2023-04-10T10:50:25.991Z,23.18
2023-04-10T10:52:52.938Z,23.25
2023-04-10T10:55:22.550Z,23.24
2023-04-10T10:57:52.296Z,23.17
2023-04-10T11:00:19.063Z,23.21
2023-04-10T11:02:45.722Z,23.18
2023-04-10T11:05:32.094Z,23.23
2023-04-10T11:07:58.340Z,23.29
2023-04-10T11:10:43.395Z,23.25
2023-04-10T11:15:35.901Z,23.24
2023-04-10T11:18:02.253Z,23.08
2023-04-10T11:20:28.817Z,23.09
2023-04-10T11:23:21.371Z,23.16
2023-04-10T11:25:49.037Z,23.03
2023-04-10T11:28:34.492Z,23.09
2023-04-10T11:31:16.242Z,23.06
2023-04-10T11:33:42.663Z,23.05
2023-04-10T11:36:08.988Z,22.97
2023-04-10T11:38:35.313Z,22.98
2023-04-10T11:41:02.847Z,22.99
2023-04-10T11:43:29.312Z,23.00
2023-04-10T11:46:02.042Z,23.06
2023-04-10T11:48:29.482Z,23.02
2023-04-10T11:50:55.932Z,22.89
2023-04-10T11:53:22.265Z,22.84
2023-04-10T11:55:48.847Z,22.90
2023-04-10T11:58:24.713Z,22.93
2023-04-10T12:00:57.295Z,22.82
2023-04-10T12:03:33.714Z,22.84
2023-04-10T12:06:00.189Z,22.80
2023-04-10T12:08:30.515Z,22.86
2023-04-10T12:10:56.831Z,22.76
2023-04-10T12:13:26.838Z,22.80
2023-04-10T12:15:53.529Z,22.79
2023-04-10T12:18:20.391Z,22.75
2023-04-10T12:20:46.697Z,22.77
2023-04-10T12:23:13.022Z,22.76
2023-04-10T12:25:39.377Z,22.71
2023-04-10T12:28:06.100Z,22.60
2023-04-10T12:30:32.429Z,22.63
2023-04-10T12:33:00.186Z,22.58
2023-04-10T12:35:39.192Z,22.45
2023-04-10T12:38:05.652Z,22.35
2023-04-10T12:40:32.221Z,22.35
2023-04-10T12:42:58.547Z,22.35
2023-04-10T12:45:43.738Z,22.38
2023-04-10T12:48:10.070Z,22.41
2023-04-10T12:50:48.877Z,22.36
2023-04-10T12:53:15.705Z,22.37
2023-04-10T12:55:43.005Z,22.28
2023-04-10T12:58:17.345Z,22.24
2023-04-10T13:00:43.727Z,22.27
2023-04-10T13:03:10.439Z,22.20
2023-04-10T13:05:36.846Z,22.26
2023-04-10T13:08:03.172Z,22.26
2023-04-10T13:10:29.562Z,22.31
2023-04-10T13:12:56.047Z,22.28
2023-04-10T13:15:22.371Z,22.23
2023-04-10T13:17:48.754Z,22.20
2023-04-10T13:20:15.173Z,22.25
2023-04-10T13:22:41.503Z,22.15
2023-04-10T13:25:07.974Z,22.18
2023-04-10T13:27:34.315Z,22.17
2023-04-10T13:30:00.632Z,22.25
2023-04-10T13:32:27.034Z,22.19
2023-04-10T13:34:54.756Z,22.24
2023-04-10T13:37:21.126Z,22.26
2023-04-10T13:39:47.439Z,22.19
2023-04-10T13:42:13.767Z,22.23
2023-04-10T13:44:40.097Z,22.23
2023-04-10T13:47:06.652Z,22.16
2023-04-10T13:49:33.147Z,22.04
2023-04-10T13:51:59.478Z,21.97
2023-04-10T13:54:26.460Z,21.86
2023-04-10T13:56:54.546Z,21.97
2023-04-10T13:59:21.090Z,21.95
2023-04-10T14:01:47.731Z,21.97
2023-04-10T14:04:14.061Z,21.92
2023-04-10T14:06:40.683Z,21.99
2023-04-10T14:09:07.101Z,21.95
2023-04-10T14:11:33.402Z,21.90
2023-04-10T14:13:59.728Z,21.93
2023-04-10T14:16:26.104Z,22.02
2023-04-10T14:18:52.576Z,21.81
2023-04-10T14:21:20.687Z,21.69
2023-04-10T14:23:47.399Z,21.63
2023-04-10T14:26:13.749Z,21.71
2023-04-10T14:28:40.090Z,21.67
2023-04-10T14:31:07.918Z,21.71
2023-04-10T14:33:35.000Z,21.73
2023-04-10T14:36:01.442Z,21.82
2023-04-10T14:38:27.793Z,21.82
2023-04-10T14:40:54.099Z,21.78
2023-04-10T14:43:20.842Z,21.74
2023-04-10T14:45:47.217Z,21.79
2023-04-10T14:48:13.683Z,21.77
2023-04-10T14:50:40.073Z,21.69
2023-04-10T14:53:06.394Z,21.68
2023-04-10T14:55:32.733Z,21.64
2023-04-10T14:57:59.145Z,21.63
2023-04-10T15:00:25.557Z,21.62
2023-04-10T15:02:52.108Z,21.60
2023-04-10T15:05:18.595Z,21.56
2023-04-10T15:07:44.936Z,21.57
2023-04-10T15:10:11.315Z,21.61
2023-04-10T15:12:37.705Z,21.56
2023-04-10T15:15:04.125Z,21.46
2023-04-10T15:17:30.521Z,21.53
2023-04-10T15:19:56.854Z,21.60
2023-04-10T15:22:23.182Z,21.48
2023-04-10T15:24:51.100Z,21.57
2023-04-10T15:27:23.387Z,21.39
2023-04-10T15:29:49.705Z,21.37
2023-04-10T15:32:16.043Z,21.46
2023-04-10T15:34:42.410Z,21.51
2023-04-10T15:37:08.755Z,21.54
2023-04-10T15:39:36.938Z,21.52
2023-04-10T15:42:05.151Z,21.57
2023-04-10T15:44:31.669Z,21.61
2023-04-10T15:46:57.983Z,21.57
2023-04-10T15:49:36.328Z,21.63
2023-04-10T15:52:04.716Z,21.85
2023-04-10T15:54:32.648Z,22.16
2023-04-10T15:56:58.948Z,22.33
2023-04-10T15:59:25.257Z,22.48
2023-04-10T16:01:51.734Z,22.61
2023-04-10T16:04:18.288Z,22.70
2023-04-10T16:06:44.741Z,22.75
2023-04-10T16:09:24.306Z,22.81
2023-04-10T16:11:52.349Z,22.88
2023-04-10T16:14:19.124Z,22.93
2023-04-10T16:16:45.728Z,23.03
2023-04-10T16:19:12.081Z,23.08
2023-04-10T16:21:38.459Z,23.30
2023-04-10T16:24:04.873Z,23.16
2023-04-10T16:26:31.223Z,23.25
2023-04-10T16:28:57.618Z,23.34
2023-04-10T16:31:24.262Z,23.35
2023-04-10T16:33:50.620Z,23.41
2023-04-10T16:36:16.937Z,23.42
2023-04-10T16:38:44.465Z,23.41
2023-04-10T16:41:12.318Z,23.42
2023-04-10T16:43:38.708Z,23.38
2023-04-10T16:46:05.244Z,23.34
2023-04-10T16:48:32.578Z,23.33
2023-04-10T16:51:05.682Z,23.33
2023-04-10T16:53:38.189Z,23.30
2023-04-10T16:56:05.402Z,23.26
2023-04-10T16:58:32.993Z,23.32
2023-04-10T17:00:59.416Z,23.43
2023-04-10T17:03:25.831Z,23.48
2023-04-10T17:05:52.221Z,23.63
2023-04-10T17:08:18.634Z,23.74
2023-04-10T17:10:44.938Z,23.80
2023-04-10T17:13:11.362Z,23.85
2023-04-10T17:15:39.128Z,23.85
2023-04-10T17:18:05.772Z,23.86
2023-04-10T17:20:35.188Z,23.85
2023-04-10T17:23:01.544Z,23.82
2023-04-10T17:25:27.857Z,23.80
2023-04-10T17:27:54.261Z,23.80
2023-04-10T17:30:20.751Z,23.80
2023-04-10T17:32:49.057Z,23.79
2023-04-10T17:35:15.433Z,23.81
2023-04-10T17:37:41.782Z,23.78
2023-04-10T17:40:08.342Z,23.75
2023-04-10T17:42:34.713Z,23.75
2023-04-10T17:45:01.066Z,23.74
2023-04-10T17:47:27.459Z,23.71
2023-04-10T17:49:53.820Z,23.68
2023-04-10T17:52:20.138Z,23.64
2023-04-10T17:54:46.481Z,23.62
2023-04-10T17:57:12.824Z,23.60
2023-04-10T17:59:39.153Z,23.56
2023-04-10T18:02:05.508Z,23.54
2023-04-10T18:04:31.848Z,23.63
2023-04-10T18:06:58.200Z,23.74
2023-04-10T18:09:24.523Z,23.82
2023-04-10T18:11:52.139Z,23.89
2023-04-10T18:14:18.494Z,23.96
2023-04-10T18:16:44.867Z,24.00
2023-04-10T18:19:11.238Z,24.00
2023-04-10T18:21:37.567Z,23.98
2023-04-10T18:24:03.903Z,23.99
2023-04-10T18:26:33.164Z,23.92
2023-04-10T18:29:00.376Z,23.91
2023-04-10T18:31:27.021Z,23.89
2023-04-10T18:34:04.188Z,23.86
2023-04-10T18:36:33.897Z,23.86
2023-04-10T18:39:00.538Z,23.82
2023-04-10T18:41:26.925Z,23.79
2023-04-10T18:44:01.764Z,23.82
2023-04-10T18:46:32.402Z,23.80
2023-04-10T18:48:59.164Z,23.76
2023-04-10T18:51:26.455Z,23.72
2023-04-10T18:53:53.015Z,23.73
2023-04-10T18:56:19.558Z,23.70
2023-04-10T18:58:49.051Z,23.63
2023-04-10T19:01:17.530Z,23.58
2023-04-10T19:03:44.299Z,23.58
2023-04-10T19:06:10.954Z,23.53
2023-04-10T19:08:37.324Z,23.54
2023-04-10T19:11:04.556Z,23.62
2023-04-10T19:13:31.144Z,23.70
2023-04-10T19:15:57.496Z,23.79
2023-04-10T19:18:23.992Z,23.82
2023-04-10T19:20:53.510Z,23.82
2023-04-10T19:23:20.408Z,23.84
2023-04-10T19:25:46.867Z,23.84
2023-04-10T19:28:13.177Z,23.86
2023-04-10T19:30:39.574Z,23.82
2023-04-10T19:33:06.022Z,23.82
2023-04-10T19:35:32.422Z,23.83
2023-04-10T19:37:58.749Z,23.84
2023-04-10T19:40:25.074Z,23.85
2023-04-10T19:42:51.461Z,23.78
2023-04-10T19:45:17.779Z,23.81
2023-04-10T19:47:44.140Z,23.77
2023-04-10T19:50:10.605Z,23.77
2023-04-10T19:52:37.771Z,23.70
2023-04-10T19:55:04.410Z,23.61
2023-04-10T19:57:30.740Z,23.50
2023-04-10T19:59:57.191Z,23.47
2023-04-10T20:02:23.662Z,23.44
2023-04-10T20:04:50.288Z,23.43
2023-04-10T20:07:16.710Z,23.39
2023-04-10T20:09:43.121Z,23.38
2023-04-10T20:12:09.718Z,23.36
2023-04-10T20:14:36.074Z,23.34
2023-04-10T20:17:02.396Z,23.31
2023-04-10T20:19:28.777Z,23.29
2023-04-10T20:24:21.540Z,23.26
2023-04-10T20:26:47.858Z,23.23
2023-04-10T20:29:14.542Z,23.18
2023-04-10T20:31:40.955Z,23.18
2023-04-10T20:34:07.382Z,23.17
2023-04-10T20:36:34.351Z,23.15
2023-04-10T20:39:00.825Z,23.14
2023-04-10T20:41:27.841Z,23.11
2023-04-10T20:43:55.734Z,23.10
2023-04-10T20:46:22.306Z,23.08
2023-04-10T20:48:48.730Z,23.07
2023-04-10T20:51:15.045Z,23.05
2023-04-10T20:53:41.355Z,23.05
2023-04-10T20:56:07.749Z,23.01
2023-04-10T20:58:34.074Z,22.99
2023-04-10T21:01:00.437Z,22.98
2023-04-10T21:03:26.891Z,22.95
2023-04-10T21:05:54.046Z,22.93
2023-04-10T21:08:20.614Z,22.93
2023-04-10T21:10:47.203Z,22.92
2023-04-10T21:13:14.079Z,22.90
2023-04-10T21:15:40.857Z,22.88
2023-04-10T21:18:07.172Z,22.85
2023-04-10T21:20:36.510Z,22.84
2023-04-10T21:23:02.831Z,22.82
2023-04-10T21:25:30.720Z,22.82
2023-04-10T21:27:57.071Z,22.78
2023-04-10T21:30:23.393Z,22.76
2023-04-10T21:32:50.003Z,22.74
2023-04-10T21:35:16.344Z,22.71
2023-04-10T21:37:42.653Z,22.69
2023-04-10T21:40:09.101Z,22.68
2023-04-10T21:42:38.348Z,22.66
2023-04-10T21:45:07.762Z,22.65
2023-04-10T21:47:34.081Z,22.64
2023-04-10T21:50:00.567Z,22.60
2023-04-10T21:52:26.908Z,22.59
2023-04-10T21:54:53.252Z,22.58
2023-04-10T21:57:19.568Z,22.56
2023-04-10T21:59:45.903Z,22.55
2023-04-10T22:02:13.147Z,22.55
2023-04-10T22:04:51.427Z,22.53
2023-04-10T22:07:20.505Z,22.53
2023-04-10T22:09:46.820Z,22.52
2023-04-10T22:12:13.148Z,22.50
2023-04-10T22:14:39.452Z,22.49
2023-04-10T22:17:05.870Z,22.49
2023-04-10T22:19:32.246Z,22.49
2023-04-10T22:21:58.559Z,22.48
2023-04-10T22:24:24.970Z,22.47
2023-04-10T22:26:51.290Z,22.44
2023-04-10T22:29:17.602Z,22.41
2023-04-10T22:31:43.936Z,22.39
2023-04-10T22:34:10.360Z,22.37
2023-04-10T22:36:37.013Z,22.37
2023-04-10T22:39:03.569Z,22.36
2023-04-10T22:41:30.085Z,22.33
2023-04-10T22:43:56.401Z,22.31
2023-04-10T22:46:22.935Z,22.31
2023-04-10T22:48:49.299Z,22.30
2023-04-10T22:51:15.684Z,22.31
2023-04-10T22:53:42.006Z,22.30
2023-04-10T22:56:08.702Z,22.28
2023-04-10T22:58:35.748Z,22.25
2023-04-10T23:01:02.134Z,22.24
2023-04-10T23:03:28.524Z,22.25
2023-04-10T23:05:54.924Z,22.24
2023-04-10T23:08:21.246Z,22.23
2023-04-10T23:10:47.602Z,22.23
2023-04-10T23:13:13.918Z,22.24
2023-04-10T23:15:40.255Z,22.22
2023-04-10T23:18:07.218Z,22.23
2023-04-10T23:20:33.596Z,22.20
2023-04-10T23:22:59.904Z,22.20
2023-04-10T23:25:26.258Z,22.18
2023-04-10T23:27:52.595Z,22.16
2023-04-10T23:30:18.927Z,22.15
2023-04-10T23:32:45.283Z,22.13
2023-04-10T23:35:11.623Z,22.12
2023-04-10T23:37:37.961Z,22.11
2023-04-10T23:40:04.476Z,22.09
2023-04-10T23:42:31.180Z,22.09
2023-04-10T23:44:57.611Z,22.08
2023-04-10T23:47:24.075Z,22.10
2023-04-10T23:49:50.518Z,22.09
2023-04-10T23:52:16.841Z,22.07
2023-04-10T23:54:43.951Z,22.05
2023-04-10T23:57:10.400Z,22.04
2023-04-10T23:59:36.712Z,22.06
